Time;durP1;ratioP1;P1;durP2;ratioP2;P2;SDS_P1;SDS_P2;PMS_P1;PMS_P2;Temp;Humidity;BMP_temperature;BMP_pressure;BME280_temperature;BME280_humidity;BME280_pressure;Samples;Min_cycle;Max_cycle;Signal;HPM_P1;HPM_P2
2023/12/04 00:00:05;;;;;;;10.67;7.10;;;-2.20;99.90;;;;;;5032898;28;20216;-80
2023/12/04 00:02:30;;;;;;;10.90;6.83;;;-2.20;97.50;;;;;;5033634;28;20188;-80
2023/12/04 00:04:56;;;;;;;11.77;6.43;;;-2.20;1.00;;;;;;5035208;28;20184;-80
2023/12/04 00:07:21;;;;;;;10.30;6.70;;;-2.20;1.00;;;;;;5033697;28;20176;-80
2023/12/04 00:09:47;;;;;;;10.73;6.57;;;-2.20;1.00;;;;;;5034500;28;20239;-80
2023/12/04 00:12:12;;;;;;;13.67;6.73;;;-2.20;99.90;;;;;;5035107;28;20176;-79
2023/12/04 00:14:38;;;;;;;14.90;7.60;;;-2.30;99.90;;;;;;5034995;28;20255;-80
2023/12/04 00:17:04;;;;;;;13.60;7.23;;;-2.40;1.00;;;;;;5033318;28;20176;-80
2023/12/04 00:19:29;;;;;;;12.87;7.10;;;-2.40;1.00;;;;;;5034144;28;20179;-80
2023/12/04 00:21:55;;;;;;;13.43;7.13;;;-2.40;1.00;;;;;;5033757;28;20723;-81
2023/12/04 00:24:20;;;;;;;12.50;7.13;;;-2.40;64.00;;;;;;5034878;28;20254;-80
2023/12/04 00:26:46;;;;;;;13.10;7.03;;;-2.50;99.90;;;;;;5033314;28;20267;-80
2023/12/04 00:29:11;;;;;;;14.23;7.97;;;-2.50;1.00;;;;;;5033448;28;20192;-80
2023/12/04 00:31:37;;;;;;;13.77;7.10;;;-2.50;20.60;;;;;;5034242;28;20200;-81
2023/12/04 00:34:02;;;;;;;13.83;7.43;;;-2.50;99.90;;;;;;5032766;28;20174;-80
2023/12/04 00:36:28;;;;;;;13.77;7.57;;;-2.50;1.00;;;;;;5032864;28;20182;-80
2023/12/04 00:38:54;;;;;;;11.63;6.83;;;-2.60;1.00;;;;;;5032637;28;20265;-80
2023/12/04 00:41:19;;;;;;;10.60;6.97;;;-2.60;1.00;;;;;;5032024;28;20689;-80
2023/12/04 00:43:45;;;;;;;13.70;7.43;;;-2.60;99.90;;;;;;5032489;28;20758;-80
2023/12/04 00:46:10;;;;;;;12.53;7.87;;;-2.60;1.00;;;;;;5032573;28;20237;-80
2023/12/04 00:48:36;;;;;;;12.13;6.83;;;-2.70;1.00;;;;;;5033577;28;20178;-80
2023/12/04 00:51:02;;;;;;;12.17;7.23;;;-2.70;1.00;;;;;;5031595;28;20208;-80
2023/12/04 00:53:27;;;;;;;14.23;7.47;;;-2.70;1.00;;;;;;5032738;28;20210;-80
2023/12/04 00:55:53;;;;;;;12.43;7.37;;;-2.70;1.00;;;;;;5032798;28;20560;-80
2023/12/04 00:58:18;;;;;;;13.40;7.30;;;-2.70;99.90;;;;;;5032730;28;20643;-80
2023/12/04 01:00:44;;;;;;;15.23;7.70;;;-2.80;1.00;;;;;;5031245;28;20584;-80
2023/12/04 01:03:09;;;;;;;11.90;7.33;;;-2.70;99.90;;;;;;5032102;28;20179;-80
2023/12/04 01:05:35;;;;;;;13.63;7.60;;;-2.80;99.90;;;;;;5031930;28;20223;-80
2023/12/04 01:08:00;;;;;;;11.57;6.80;;;-2.80;1.80;;;;;;5032420;28;20606;-80
2023/12/04 01:10:26;;;;;;;11.53;7.50;;;-2.80;99.90;;;;;;5031316;28;20206;-80
2023/12/04 01:12:51;;;;;;;12.30;7.23;;;-2.90;1.00;;;;;;5033499;28;20190;-80
2023/12/04 01:15:17;;;;;;;13.23;7.80;;;-2.90;99.90;;;;;;5031861;28;20194;-80
2023/12/04 01:17:43;;;;;;;14.97;8.23;;;-3.00;1.00;;;;;;5033167;28;20167;-80
2023/12/04 01:20:09;;;;;;;14.00;7.77;;;-3.00;99.90;;;;;;5030434;28;20671;-80
2023/12/04 01:22:34;;;;;;;12.53;7.27;;;-3.00;1.00;;;;;;5033117;28;20186;-80
2023/12/04 01:25:00;;;;;;;13.80;8.13;;;-3.00;1.00;;;;;;5031769;28;20192;-80
2023/12/04 01:27:25;;;;;;;14.57;7.60;;;-3.00;1.00;;;;;;5031768;28;20675;-79
2023/12/04 01:29:51;;;;;;;14.00;7.60;;;-3.00;99.90;;;;;;5032217;28;20206;-80
2023/12/04 01:32:17;;;;;;;13.87;7.77;;;-3.00;99.90;;;;;;5031438;28;20175;-80
2023/12/04 01:34:42;;;;;;;12.70;7.80;;;-3.10;99.90;;;;;;5032724;28;20201;-80
2023/12/04 01:37:08;;;;;;;13.97;7.23;;;-3.10;99.90;;;;;;5031871;28;20220;-80
2023/12/04 01:39:34;;;;;;;15.13;8.20;;;-3.10;99.90;;;;;;5032406;28;20224;-80
2023/12/04 01:41:59;;;;;;;12.97;7.73;;;-3.10;99.90;;;;;;5033096;28;20175;-80
2023/12/04 01:44:25;;;;;;;13.47;7.50;;;-3.20;1.00;;;;;;5031564;28;20673;-80
2023/12/04 01:46:51;;;;;;;12.53;7.30;;;-3.20;1.00;;;;;;5031684;28;20175;-81
2023/12/04 01:49:17;;;;;;;14.37;7.67;;;-3.30;1.00;;;;;;5030847;28;20366;-80
2023/12/04 01:51:44;;;;;;;12.87;7.27;;;-3.30;99.90;;;;;;5032851;28;20217;-80
2023/12/04 01:54:09;;;;;;;13.97;7.87;;;-3.40;99.90;;;;;;5031406;28;20261;-80
2023/12/04 01:56:37;;;;;;;14.20;7.80;;;-3.40;99.90;;;;;;5031698;28;20225;-80
2023/12/04 01:59:02;;;;;;;13.37;7.13;;;-3.40;1.00;;;;;;5032469;28;20201;-80
2023/12/04 02:01:28;;;;;;;13.40;7.93;;;-3.30;1.00;;;;;;5031775;28;20245;-80
2023/12/04 02:03:56;;;;;;;13.57;7.40;;;-3.40;1.00;;;;;;5031410;28;20171;-80
2023/12/04 02:06:22;;;;;;;14.00;7.67;;;-3.30;1.00;;;;;;5031098;28;20652;-81
2023/12/04 02:08:48;;;;;;;11.93;7.37;;;-3.30;1.00;;;;;;5032238;28;20189;-80
2023/12/04 02:11:13;;;;;;;12.97;7.40;;;-3.20;1.00;;;;;;5030884;28;20198;-80
2023/12/04 02:13:39;;;;;;;12.80;7.20;;;-3.20;1.00;;;;;;5032221;28;20170;-80
2023/12/04 02:16:08;;;;;;;14.10;7.50;;;-3.20;99.90;;;;;;5032448;28;20177;-80
2023/12/04 02:18:34;;;;;;;11.23;7.30;;;-3.20;1.00;;;;;;5032504;28;20659;-80
2023/12/04 02:21:01;;;;;;;13.80;8.03;;;-3.20;99.90;;;;;;5031795;28;20753;-80
2023/12/04 02:23:27;;;;;;;14.33;7.97;;;-3.30;1.00;;;;;;5032325;28;20171;-81
2023/12/04 02:25:59;;;;;;;13.83;7.63;;;-3.30;1.00;;;;;;5031941;28;20647;-80
2023/12/04 02:28:26;;;;;;;11.10;7.30;;;-3.30;1.00;;;;;;5031025;28;20589;-80
2023/12/04 02:30:53;;;;;;;13.57;7.83;;;-3.40;99.90;;;;;;5031617;28;20202;-81
2023/12/04 02:33:21;;;;;;;15.40;8.13;;;-3.40;1.00;;;;;;5036153;28;20170;-81
2023/12/04 02:35:47;;;;;;;13.07;7.57;;;-3.50;1.00;;;;;;5036266;28;20166;-80
2023/12/04 02:38:13;;;;;;;13.20;7.37;;;-3.50;1.00;;;;;;5036100;28;20175;-80
2023/12/04 02:40:40;;;;;;;13.37;7.87;;;-3.50;1.00;;;;;;5034175;28;20202;-80
2023/12/04 02:43:05;;;;;;;12.60;7.33;;;-3.40;99.90;;;;;;5034716;28;20174;-80
2023/12/04 02:45:31;;;;;;;15.43;8.23;;;-3.40;1.00;;;;;;5034899;28;20170;-80
2023/12/04 02:47:56;;;;;;;13.50;7.40;;;-3.50;99.90;;;;;;5036092;28;20213;-80
2023/12/04 02:50:22;;;;;;;12.67;7.07;;;-3.60;99.90;;;;;;5033869;28;20203;-80
2023/12/04 02:52:47;;;;;;;10.60;6.63;;;-3.70;99.90;;;;;;5034688;28;20583;-80
2023/12/04 02:55:13;;;;;;;13.90;8.00;;;-3.80;22.30;;;;;;5034866;28;20232;-80
2023/12/04 02:57:38;;;;;;;12.87;6.83;;;-3.80;99.90;;;;;;5035918;28;20184;-80
2023/12/04 03:00:06;;;;;;;12.93;7.47;;;-3.80;70.90;;;;;;5034241;28;20202;-80
2023/12/04 03:02:31;;;;;;;12.43;7.27;;;-3.80;3.20;;;;;;5034583;28;20179;-81
2023/12/04 03:04:57;;;;;;;13.60;7.30;;;-3.70;1.00;;;;;;5034506;28;20850;-80
2023/12/04 03:07:24;;;;;;;11.90;7.23;;;-3.80;1.00;;;;;;5034705;28;20577;-80
2023/12/04 03:09:50;;;;;;;15.17;7.53;;;-3.70;1.00;;;;;;5035250;28;20590;-80
2023/12/04 03:12:16;;;;;;;12.87;7.80;;;-3.80;1.00;;;;;;5034426;28;20632;-81
2023/12/04 03:14:42;;;;;;;12.77;7.50;;;-3.90;99.90;;;;;;5034185;28;20181;-80
2023/12/04 03:17:07;;;;;;;13.07;7.07;;;-3.90;99.90;;;;;;5035613;28;20182;-80
2023/12/04 03:19:33;;;;;;;13.33;7.47;;;-3.90;99.90;;;;;;5033662;28;20176;-80
2023/12/04 03:22:00;;;;;;;10.87;6.87;;;-4.00;99.90;;;;;;5034160;28;20232;-80
2023/12/04 03:24:25;;;;;;;14.67;7.70;;;-4.00;1.00;;;;;;5034167;28;20547;-80
2023/12/04 03:26:51;;;;;;;14.07;7.80;;;-4.00;1.00;;;;;;5034008;28;20186;-80
2023/12/04 03:29:16;;;;;;;13.83;7.70;;;-4.00;1.00;;;;;;5033257;28;20206;-80
2023/12/04 03:31:42;;;;;;;14.70;8.10;;;-4.00;1.00;;;;;;5035232;28;20273;-80
2023/12/04 03:34:07;;;;;;;13.23;7.43;;;-4.00;1.00;;;;;;5034290;28;20216;-82
2023/12/04 03:36:33;;;;;;;12.17;6.83;;;-4.00;1.00;;;;;;5035287;28;20182;-80
2023/12/04 03:38:58;;;;;;;14.93;7.93;;;-4.00;1.00;;;;;;5034863;28;20178;-80
2023/12/04 03:41:24;;;;;;;12.07;7.07;;;-3.90;1.00;;;;;;5033332;28;20205;-80
2023/12/04 03:43:50;;;;;;;11.97;7.23;;;-3.90;1.00;;;;;;5032917;28;20220;-81
2023/12/04 03:46:15;;;;;;;14.63;8.13;;;-4.00;1.00;;;;;;5033865;28;20228;-80
2023/12/04 03:48:41;;;;;;;12.70;6.90;;;-4.00;1.00;;;;;;5033772;28;20205;-80
2023/12/04 03:51:06;;;;;;;11.90;7.23;;;-4.00;1.00;;;;;;5033094;28;20245;-80
2023/12/04 03:53:32;;;;;;;12.57;6.87;;;-4.00;1.00;;;;;;5033733;28;20174;-81
2023/12/04 03:56:00;;;;;;;14.23;7.10;;;-4.00;1.00;;;;;;5033724;28;20176;-79
2023/12/04 03:58:26;;;;;;;13.17;7.40;;;-4.00;1.00;;;;;;5033505;28;20175;-82
2023/12/04 04:00:52;;;;;;;13.97;7.77;;;-4.00;1.00;;;;;;5034062;28;20217;-80
2023/12/04 04:03:17;;;;;;;14.37;7.73;;;-4.00;1.00;;;;;;5033294;28;20175;-80
2023/12/04 04:05:43;;;;;;;14.97;7.17;;;-4.00;1.00;;;;;;5033448;28;20264;-80
2023/12/04 04:08:08;;;;;;;15.70;8.07;;;-3.90;1.00;;;;;;5034510;28;20233;-82
2023/12/04 04:10:34;;;;;;;15.83;8.37;;;-3.80;1.00;;;;;;5033702;28;20207;-80
2023/12/04 04:13:00;;;;;;;14.83;7.63;;;-3.90;1.00;;;;;;5033169;28;20265;-80
2023/12/04 04:15:26;;;;;;;14.40;7.60;;;-3.90;1.00;;;;;;5033520;28;20170;-80
2023/12/04 04:17:51;;;;;;;15.27;7.43;;;-3.90;1.00;;;;;;5034378;28;20171;-80
2023/12/04 04:20:17;;;;;;;13.07;7.17;;;-3.90;1.00;;;;;;5033652;28;20194;-80
2023/12/04 04:22:43;;;;;;;12.33;7.17;;;-3.70;1.00;;;;;;5033102;28;20281;-80
2023/12/04 04:25:09;;;;;;;12.53;7.20;;;-3.70;1.00;;;;;;5033031;28;20715;-80
2023/12/04 04:27:35;;;;;;;12.97;7.60;;;-3.70;1.00;;;;;;5034082;28;20190;-80
2023/12/04 04:30:01;;;;;;;15.60;8.43;;;-3.80;1.00;;;;;;5032505;28;20214;-80
2023/12/04 04:32:27;;;;;;;14.37;7.70;;;-3.80;1.00;;;;;;5033057;28;20314;-81
2023/12/04 04:34:52;;;;;;;13.27;7.53;;;-3.80;1.00;;;;;;5032786;28;20206;-80
2023/12/04 04:37:19;;;;;;;12.57;7.03;;;-3.70;1.00;;;;;;5033133;28;20182;-81
2023/12/04 04:39:45;;;;;;;12.43;6.97;;;-3.60;1.00;;;;;;5033460;28;20221;-80
2023/12/04 04:42:11;;;;;;;15.73;7.80;;;-3.60;99.90;;;;;;5034188;28;20182;-80
2023/12/04 04:44:36;;;;;;;12.57;7.03;;;-3.70;99.90;;;;;;5034182;28;20178;-80
2023/12/04 04:47:02;;;;;;;12.83;7.27;;;-3.70;99.90;;;;;;5033090;28;20186;-80
2023/12/04 04:49:28;;;;;;;12.10;7.33;;;-3.80;1.00;;;;;;5033362;28;20218;-80
2023/12/04 04:51:53;;;;;;;11.87;6.87;;;-3.80;1.00;;;;;;5032559;28;20170;-81
2023/12/04 04:54:19;;;;;;;12.63;6.63;;;-3.70;1.00;;;;;;5033700;28;20182;-80
2023/12/04 04:56:45;;;;;;;12.90;7.63;;;-3.70;1.00;;;;;;5033533;28;20179;-80
2023/12/04 04:59:10;;;;;;;11.80;7.03;;;-3.70;1.00;;;;;;5032271;28;20186;-80
2023/12/04 05:01:36;;;;;;;11.77;7.20;;;-3.60;1.00;;;;;;5033171;28;20214;-82
2023/12/04 05:04:02;;;;;;;14.13;6.63;;;-3.60;1.00;;;;;;5033697;28;20179;-80
2023/12/04 05:06:28;;;;;;;12.90;7.17;;;-3.60;1.00;;;;;;5032709;28;20236;-80
2023/12/04 05:08:54;;;;;;;16.30;8.23;;;-3.60;1.00;;;;;;5033456;28;20184;-80
2023/12/04 05:11:19;;;;;;;13.87;7.17;;;-3.50;1.00;;;;;;5031562;28;20740;-80
2023/12/04 05:13:45;;;;;;;12.17;7.33;;;-3.50;99.90;;;;;;5033789;28;20229;-80
2023/12/04 05:16:11;;;;;;;12.07;6.20;;;-3.60;1.00;;;;;;5033334;28;20174;-80
2023/12/04 05:18:38;;;;;;;11.53;5.97;;;-3.60;99.90;;;;;;5031909;28;20182;-80
2023/12/04 05:21:08;;;;;;;12.80;6.30;;;-3.40;99.90;;;;;;5031379;28;20198;-80
2023/12/04 05:23:34;;;;;;;9.90;5.40;;;-3.30;1.00;;;;;;5032183;28;20182;-79
2023/12/04 05:25:59;;;;;;;10.27;6.03;;;-3.10;1.00;;;;;;5033144;28;20228;-80
2023/12/04 05:28:25;;;;;;;10.70;6.10;;;-3.00;1.00;;;;;;5033306;28;20186;-80
2023/12/04 05:30:51;;;;;;;16.03;8.00;;;-3.10;99.90;;;;;;5032560;28;20241;-80
2023/12/04 05:33:16;;;;;;;14.20;7.97;;;-3.30;1.00;;;;;;5031806;28;20167;-80
2023/12/04 05:35:42;;;;;;;15.03;8.13;;;-3.40;99.90;;;;;;5031778;28;20263;-80
2023/12/04 05:38:08;;;;;;;13.40;7.77;;;-3.50;1.00;;;;;;5032861;28;20201;-80
2023/12/04 05:40:34;;;;;;;16.70;8.33;;;-3.50;99.90;;;;;;5032069;28;20202;-81
2023/12/04 05:42:59;;;;;;;15.90;9.20;;;-3.60;99.90;;;;;;5031503;28;20212;-81
2023/12/04 05:45:25;;;;;;;15.13;9.20;;;-3.80;1.00;;;;;;5032987;28;20174;-80
2023/12/04 05:47:52;;;;;;;17.17;8.67;;;-3.70;1.00;;;;;;5031402;28;20198;-81
2023/12/04 05:50:18;;;;;;;13.77;8.37;;;-3.70;1.00;;;;;;5030595;28;20206;-81
2023/12/04 05:52:44;;;;;;;15.77;9.00;;;-3.80;1.00;;;;;;5031346;28;20205;-81
2023/12/04 05:55:10;;;;;;;16.43;9.23;;;-3.70;1.00;;;;;;5031305;28;20178;-80
2023/12/04 05:57:35;;;;;;;14.60;8.73;;;-3.70;1.00;;;;;;5031310;28;20270;-80
2023/12/04 06:00:01;;;;;;;17.37;9.53;;;-3.60;1.00;;;;;;5030738;28;20569;-80
2023/12/04 06:02:29;;;;;;;15.27;8.60;;;-3.60;1.00;;;;;;5031317;28;20214;-80
2023/12/04 06:04:55;;;;;;;14.77;8.57;;;-3.60;1.00;;;;;;5030864;28;20179;-78
2023/12/04 06:07:21;;;;;;;14.43;7.43;;;-3.60;1.00;;;;;;5031905;28;20170;-78
2023/12/04 06:09:46;;;;;;;17.57;9.10;;;-2.70;99.90;;;;;;5030113;28;20210;-78
2023/12/04 06:12:12;;;;;;;16.53;8.33;;;-1.70;99.90;;;;;;5031251;28;20651;-80
2023/12/04 06:14:37;;;;;;;13.37;8.53;;;-1.00;99.90;;;;;;5032070;28;20215;-78
2023/12/04 06:17:03;;;;;;;12.83;8.13;;;-0.50;99.90;;;;;;5030775;28;20256;-80
2023/12/04 06:19:29;;;;;;;13.53;8.80;;;0.00;99.90;;;;;;5031449;28;20185;-81
2023/12/04 06:21:55;;;;;;;14.30;8.23;;;-0.20;99.90;;;;;;5030253;28;20185;-80
2023/12/04 06:24:21;;;;;;;14.03;7.97;;;-0.90;42.00;;;;;;5032204;28;20269;-82
2023/12/04 06:26:49;;;;;;;14.03;8.43;;;-1.30;1.00;;;;;;5032521;28;20178;-82
2023/12/04 06:29:15;;;;;;;14.03;8.10;;;-1.90;1.00;;;;;;5030234;28;20272;-80
2023/12/04 06:31:41;;;;;;;14.00;8.47;;;-2.10;1.00;;;;;;5031839;28;20293;-81
2023/12/04 06:34:07;;;;;;;13.50;8.30;;;-2.60;1.00;;;;;;5031996;28;20178;-81
2023/12/04 06:36:38;;;;;;;13.30;8.33;;;-2.60;1.00;;;;;;5031961;28;20594;-80
2023/12/04 06:39:09;;;;;;;13.53;7.40;;;-2.80;1.00;;;;;;5030998;28;20207;-81
2023/12/04 06:41:35;;;;;;;12.37;7.37;;;-2.80;99.90;;;;;;5030228;28;20202;-82
2023/12/04 06:44:01;;;;;;;12.70;7.50;;;-2.80;99.90;;;;;;5032017;28;20181;-81
2023/12/04 06:46:29;;;;;;;11.60;7.30;;;-2.90;1.00;;;;;;5031833;28;20179;-81
2023/12/04 06:48:59;;;;;;;9.87;5.93;;;-2.90;99.90;;;;;;5031699;28;20201;-81
2023/12/04 06:51:24;;;;;;;11.17;6.37;;;-2.80;65.10;;;;;;5031432;28;20232;-81
2023/12/04 06:53:50;;;;;;;8.57;5.70;;;-2.80;1.00;;;;;;5031933;28;20230;-81
2023/12/04 06:56:16;;;;;;;10.40;6.13;;;-2.70;99.90;;;;;;5032001;28;20235;-81
2023/12/04 06:58:41;;;;;;;10.17;6.10;;;-2.60;99.90;;;;;;5030652;28;20181;-80
2023/12/04 07:01:07;;;;;;;11.17;6.33;;;-2.60;99.90;;;;;;5031167;28;20224;-80
2023/12/04 07:03:32;;;;;;;12.10;6.10;;;-2.70;1.00;;;;;;5032373;28;20185;-83
2023/12/04 07:05:58;;;;;;;8.90;5.90;;;-2.60;99.90;;;;;;5029609;28;20193;-81
2023/12/04 07:08:24;;;;;;;8.33;5.73;;;-2.60;99.90;;;;;;5032186;28;20188;-81
2023/12/04 07:10:50;;;;;;;10.00;6.10;;;-2.60;99.90;;;;;;5022157;28;20224;-82
2023/12/04 07:13:16;;;;;;;6.37;4.53;;;-2.60;99.90;;;;;;5023332;28;20189;-83
2023/12/04 07:15:41;;;;;;;7.27;4.60;;;-2.50;1.00;;;;;;5020643;28;20220;-82
2023/12/04 07:18:07;;;;;;;7.23;5.00;;;-2.30;99.90;;;;;;5020951;28;20213;-82
2023/12/04 07:20:32;;;;;;;7.80;4.80;;;-2.10;1.00;;;;;;5024678;28;20559;-81
2023/12/04 07:22:58;;;;;;;6.23;4.00;;;-2.00;99.90;;;;;;5035037;28;20243;-82
2023/12/04 07:25:24;;;;;;;8.20;5.37;;;-1.90;99.90;;;;;;5026268;28;20194;-80
2023/12/04 07:27:50;;;;;;;9.30;5.57;;;-1.90;99.90;;;;;;5024384;28;20236;-81
2023/12/04 07:30:15;;;;;;;13.20;7.67;;;-2.00;1.00;;;;;;5022142;28;20211;-82
2023/12/04 07:32:41;;;;;;;14.43;7.80;;;-2.10;1.00;;;;;;5024515;28;20186;-82
2023/12/04 07:35:07;;;;;;;15.57;9.03;;;-2.20;1.00;;;;;;5022310;28;20186;-81
2023/12/04 07:37:33;;;;;;;14.37;9.10;;;-2.30;1.00;;;;;;5026402;28;20189;-81
2023/12/04 07:39:59;;;;;;;15.63;8.73;;;-2.50;1.00;;;;;;5034302;28;20231;-83
2023/12/04 07:42:24;;;;;;;13.07;8.47;;;-2.60;1.00;;;;;;5026174;28;20188;-81
2023/12/04 07:44:50;;;;;;;12.63;8.00;;;-2.70;99.90;;;;;;5024826;28;20188;-81
2023/12/04 07:47:16;;;;;;;13.27;8.17;;;-2.70;99.90;;;;;;5029742;28;20258;-81
2023/12/04 07:49:42;;;;;;;11.80;7.33;;;-2.70;1.00;;;;;;5023606;28;20238;-81
2023/12/04 07:52:08;;;;;;;11.50;7.23;;;-2.70;99.90;;;;;;5028488;28;20168;-81
2023/12/04 07:54:34;;;;;;;10.90;6.37;;;-2.60;71.20;;;;;;5026869;28;20179;-81
2023/12/04 07:56:59;;;;;;;9.50;6.27;;;-2.50;1.00;;;;;;5025514;28;20179;-81
2023/12/04 07:59:25;;;;;;;9.90;5.50;;;-2.40;99.90;;;;;;5026610;28;20186;-80
2023/12/04 08:01:51;;;;;;;8.97;6.00;;;-2.30;1.00;;;;;;5025757;28;20197;-79
2023/12/04 08:04:17;;;;;;;11.77;8.00;;;-2.20;99.90;;;;;;5025495;28;20189;-81
2023/12/04 08:06:42;;;;;;;12.50;8.93;;;-2.10;1.00;;;;;;5025542;28;20243;-81
2023/12/04 08:09:09;;;;;;;14.87;11.20;;;-2.00;1.00;;;;;;5026624;28;20208;-82
2023/12/04 08:11:36;;;;;;;10.00;6.27;;;-2.00;1.00;;;;;;5024666;28;20201;-82
2023/12/04 08:14:01;;;;;;;9.37;5.47;;;-1.90;99.90;;;;;;5026924;28;20528;-81
2023/12/04 08:16:28;;;;;;;7.87;5.20;;;-1.90;99.90;;;;;;5026349;28;20188;-81
2023/12/04 08:18:54;;;;;;;10.17;6.60;;;-1.90;28.30;;;;;;5026345;28;20192;-80
2023/12/04 08:21:20;;;;;;;11.13;7.77;;;-1.90;99.90;;;;;;5032338;28;20196;-80
2023/12/04 08:23:45;;;;;;;8.53;5.07;;;-1.80;1.00;;;;;;5033594;28;20315;-84
2023/12/04 08:26:11;;;;;;;7.30;4.60;;;-1.80;1.00;;;;;;5033870;28;20188;-80
2023/12/04 08:28:41;;;;;;;7.23;4.60;;;-1.80;1.00;;;;;;5032647;28;20181;-82
2023/12/04 08:31:10;;;;;;;6.40;4.20;;;-1.70;1.00;;;;;;5033590;28;20701;-82
2023/12/04 08:33:36;;;;;;;7.00;4.20;;;-1.60;99.90;;;;;;5033801;28;20255;-82
2023/12/04 08:36:01;;;;;;;7.57;4.70;;;-1.60;99.90;;;;;;5033934;28;20173;-82
2023/12/04 08:38:27;;;;;;;5.83;4.53;;;-1.60;99.90;;;;;;5033794;28;20546;-81
2023/12/04 08:40:53;;;;;;;9.37;4.60;;;-1.50;1.00;;;;;;5031939;28;20247;-82
2023/12/04 08:43:19;;;;;;;6.33;4.50;;;-1.50;99.90;;;;;;5033042;28;20673;-82
2023/12/04 08:45:47;;;;;;;7.50;4.93;;;-1.40;99.90;;;;;;5033212;28;20190;-82
2023/12/04 08:48:13;;;;;;;7.20;4.67;;;-1.40;99.90;;;;;;5034412;28;20203;-82
2023/12/04 08:50:39;;;;;;;6.43;4.40;;;-1.40;99.90;;;;;;5032184;28;20212;-82
2023/12/04 08:53:04;;;;;;;6.80;4.33;;;-1.40;1.00;;;;;;5032921;28;20173;-84
2023/12/04 08:55:30;;;;;;;6.50;4.23;;;-1.40;1.00;;;;;;5032906;28;20655;-82
2023/12/04 08:57:56;;;;;;;6.43;4.40;;;-1.40;99.90;;;;;;5032635;28;20209;-82
2023/12/04 09:00:21;;;;;;;5.77;4.10;;;-1.30;1.00;;;;;;5092648;22;20232;-82
2023/12/04 09:02:50;;;;;;;5.97;4.20;;;-1.30;1.00;;;;;;5035849;28;20191;-82
2023/12/04 09:05:16;;;;;;;6.40;4.43;;;-1.30;1.00;;;;;;5035769;28;20185;-82
2023/12/04 09:07:42;;;;;;;6.40;4.10;;;-1.20;99.90;;;;;;5053242;28;20199;-82
2023/12/04 09:10:07;;;;;;;6.83;4.87;;;-1.10;1.00;;;;;;5034686;28;20215;-82
2023/12/04 09:12:35;;;;;;;7.63;4.80;;;-1.10;1.00;;;;;;5053034;28;20176;-83
2023/12/04 09:15:01;;;;;;;5.47;4.00;;;-1.00;99.90;;;;;;5035240;28;20173;-83
2023/12/04 09:17:27;;;;;;;7.33;4.30;;;-0.80;1.00;;;;;;5035370;28;20230;-83
2023/12/04 09:19:53;;;;;;;6.30;4.30;;;-0.70;1.00;;;;;;5052981;28;20184;-81
2023/12/04 09:22:19;;;;;;;5.70;4.10;;;-0.60;99.90;;;;;;5035638;28;20177;-81
2023/12/04 09:24:44;;;;;;;6.23;4.17;;;-0.50;4.40;;;;;;5052692;28;20180;-76
2023/12/04 09:27:10;;;;;;;5.67;3.90;;;-0.50;1.00;;;;;;5052350;28;20176;-79
2023/12/04 09:29:35;;;;;;;5.90;3.80;;;-0.40;1.00;;;;;;5052031;28;20208;-80
2023/12/04 09:32:01;;;;;;;5.83;4.00;;;-0.40;1.00;;;;;;5034639;28;20193;-79
2023/12/04 09:34:27;;;;;;;5.10;3.80;;;-0.40;1.00;;;;;;5052540;28;20196;-79
2023/12/04 09:36:52;;;;;;;5.90;4.00;;;-0.40;1.00;;;;;;5034800;28;20637;-79
2023/12/04 09:39:18;;;;;;;4.93;3.67;;;-0.40;1.00;;;;;;5051851;28;20227;-79
2023/12/04 09:41:45;;;;;;;5.17;3.60;;;-0.40;16.90;;;;;;5051903;28;20204;-80
2023/12/04 09:44:11;;;;;;;4.47;3.30;;;-0.40;43.40;;;;;;5034858;28;20177;-81
2023/12/04 09:46:38;;;;;;;5.07;3.63;;;-0.40;1.00;;;;;;5034576;28;20205;-78
2023/12/04 09:49:04;;;;;;;3.80;2.93;;;-0.40;99.90;;;;;;5052095;28;20263;-79
2023/12/04 09:51:30;;;;;;;3.57;3.03;;;-0.40;5.40;;;;;;5034249;28;20205;-81
2023/12/04 09:53:58;;;;;;;4.60;3.17;;;-0.30;1.00;;;;;;5034874;28;20166;-78
2023/12/04 09:56:25;;;;;;;5.60;3.53;;;-0.30;99.90;;;;;;5034369;28;20183;-79
2023/12/04 09:59:00;;;;;;;5.57;3.30;;;-0.40;10.10;;;;;;5034221;28;20174;-80
2023/12/04 10:01:32;;;;;;;4.97;3.70;;;-0.40;99.90;;;;;;5051497;28;20204;-79
2023/12/04 10:03:59;;;;;;;5.73;3.70;;;-0.40;1.00;;;;;;5052081;28;20183;-79
2023/12/04 10:06:31;;;;;;;6.03;3.50;;;-0.30;1.00;;;;;;5051883;28;20204;-80
2023/12/04 10:09:00;;;;;;;5.23;3.60;;;-0.30;1.00;;;;;;5034152;28;20173;-79
2023/12/04 10:11:26;;;;;;;3.87;2.90;;;-0.20;1.00;;;;;;5033778;28;20365;-79
2023/12/04 10:13:53;;;;;;;3.97;3.27;;;0.00;1.00;;;;;;5052022;28;20608;-79
2023/12/04 10:16:35;;;;;;;4.03;3.03;;;0.10;1.00;;;;;;5033994;28;20169;-79
2023/12/04 10:19:18;;;;;;;5.47;3.60;;;0.20;1.00;;;;;;5051583;28;20175;-79
2023/12/04 10:21:47;;;;;;;4.47;3.43;;;0.30;99.90;;;;;;5052014;28;20249;-79
2023/12/04 10:24:26;;;;;;;4.73;3.20;;;0.40;1.00;;;;;;5034589;28;20541;-80
2023/12/04 10:26:51;;;;;;;3.93;2.77;;;0.40;1.00;;;;;;5051897;28;20170;-79
2023/12/04 10:29:17;;;;;;;4.20;2.80;;;0.40;1.00;;;;;;5051134;28;20220;-79
2023/12/04 10:31:42;;;;;;;4.10;3.00;;;0.40;99.90;;;;;;5051683;28;20193;-79
2023/12/04 10:34:10;;;;;;;3.57;2.83;;;0.40;99.90;;;;;;5052226;28;20607;-80
2023/12/04 10:36:39;;;;;;;4.43;2.80;;;0.40;99.90;;;;;;5034008;28;20170;-79
2023/12/04 10:39:05;;;;;;;3.23;2.57;;;0.40;99.90;;;;;;5051581;28;20257;-79
2023/12/04 10:41:31;;;;;;;5.40;2.80;;;0.40;99.90;;;;;;5033643;28;20308;-79
2023/12/04 10:43:57;;;;;;;5.27;2.87;;;0.40;99.90;;;;;;5051832;28;20184;-79
2023/12/04 10:46:25;;;;;;;2.97;2.53;;;0.50;99.90;;;;;;5051728;28;20181;-79
2023/12/04 10:48:51;;;;;;;4.30;2.67;;;0.50;99.90;;;;;;5051741;28;20212;-82
2023/12/04 10:51:17;;;;;;;8.93;3.43;;;0.50;99.90;;;;;;5034080;28;20300;-80
2023/12/04 10:53:44;;;;;;;4.07;2.57;;;0.60;99.90;;;;;;5055804;28;20170;-79
2023/12/04 10:56:17;;;;;;;3.43;2.40;;;0.60;99.90;;;;;;5037721;28;20173;-78
2023/12/04 10:58:47;;;;;;;4.17;2.67;;;0.50;99.90;;;;;;5037421;28;20642;-79
2023/12/04 11:01:14;;;;;;;3.57;2.40;;;0.50;99.90;;;;;;5054878;28;20206;-78
2023/12/04 11:03:49;;;;;;;4.07;2.30;;;0.60;99.90;;;;;;5055293;28;20204;-79
2023/12/04 11:06:16;;;;;;;3.20;2.40;;;0.60;99.90;;;;;;5055464;28;20180;-78
2023/12/04 11:08:43;;;;;;;3.63;2.33;;;0.60;99.90;;;;;;5055127;28;20222;-80
2023/12/04 11:11:14;;;;;;;3.50;2.40;;;0.60;99.90;;;;;;5054469;28;20742;-79
2023/12/04 11:13:41;;;;;;;3.17;2.50;;;0.60;91.20;;;;;;5055333;28;20169;-78
2023/12/04 11:16:31;;;;;;;2.90;2.13;;;0.60;99.90;;;;;;5037428;28;20600;-79
2023/12/04 11:19:07;;;;;;;4.07;2.67;;;0.60;99.90;;;;;;5055395;28;20207;-79
2023/12/04 11:21:33;;;;;;;6.20;2.60;;;0.60;99.90;;;;;;5055214;28;20188;-79
2023/12/04 11:24:00;;;;;;;3.77;2.60;;;0.50;99.90;;;;;;5037044;28;20260;-79
2023/12/04 11:26:27;;;;;;;3.77;2.70;;;0.50;99.90;;;;;;5055194;28;20181;-79
2023/12/04 11:28:53;;;;;;;4.23;2.60;;;0.50;99.90;;;;;;5054969;28;20250;-77
2023/12/04 11:31:20;;;;;;;5.20;2.90;;;0.50;99.90;;;;;;5054462;28;20197;-80
2023/12/04 11:33:45;;;;;;;3.40;2.57;;;0.50;1.00;;;;;;5054880;28;20158;-79
2023/12/04 11:36:12;;;;;;;4.37;2.70;;;0.50;99.90;;;;;;5054822;28;20178;-79
2023/12/04 11:38:43;;;;;;;4.40;3.63;;;0.60;99.90;;;;;;5036940;28;20185;-80
2023/12/04 11:41:20;;;;;;;3.17;2.17;;;0.60;1.00;;;;;;5054337;28;20263;-79
2023/12/04 11:43:47;;;;;;;3.77;2.70;;;0.60;99.90;;;;;;5054635;28;20173;-79
2023/12/04 11:46:14;;;;;;;3.40;2.60;;;0.60;99.90;;;;;;5054582;28;20181;-79
2023/12/04 11:48:39;;;;;;;2.97;2.60;;;0.70;99.90;;;;;;5054450;28;20178;-79
2023/12/04 11:51:07;;;;;;;3.90;2.70;;;0.60;99.90;;;;;;5053698;28;20217;-80
2023/12/04 11:53:37;;;;;;;3.90;2.50;;;0.70;97.80;;;;;;5054738;28;20204;-79
2023/12/04 11:56:12;;;;;;;3.70;2.50;;;0.70;1.00;;;;;;5054983;28;20180;-79
2023/12/04 11:58:45;;;;;;;3.73;2.50;;;0.80;15.30;;;;;;5054824;28;20173;-80
2023/12/04 12:01:11;;;;;;;4.23;2.60;;;0.80;87.00;;;;;;5053724;28;20217;-79
2023/12/04 12:03:37;;;;;;;3.70;2.20;;;0.80;21.40;;;;;;5035787;28;20188;-78
2023/12/04 12:06:04;;;;;;;3.00;2.50;;;0.80;8.00;;;;;;5054822;28;20256;-79
2023/12/04 12:08:29;;;;;;;7.20;5.03;;;0.80;57.10;;;;;;5036983;28;20265;-79
2023/12/04 12:10:56;;;;;;;3.27;2.50;;;0.80;99.90;;;;;;5054790;28;20771;-79
2023/12/04 12:13:23;;;;;;;3.43;2.60;;;0.90;99.90;;;;;;5037436;28;20174;-80
2023/12/04 12:15:50;;;;;;;3.77;2.53;;;0.90;1.40;;;;;;5037347;28;20174;-81
2023/12/04 12:18:16;;;;;;;2.90;2.30;;;0.80;1.00;;;;;;5037654;28;20179;-80
2023/12/04 12:20:42;;;;;;;5.00;2.00;;;0.80;46.20;;;;;;5054756;28;20564;-80
2023/12/04 12:23:08;;;;;;;5.73;2.77;;;0.90;25.40;;;;;;5037136;28;20657;-81
2023/12/04 12:25:35;;;;;;;6.43;2.63;;;0.90;98.80;;;;;;5037001;28;20180;-82
2023/12/04 12:28:04;;;;;;;2.77;2.20;;;0.90;99.90;;;;;;5036880;28;20572;-81
2023/12/04 12:30:30;;;;;;;4.23;2.50;;;1.00;99.90;;;;;;5035849;28;20209;-81
2023/12/04 12:32:56;;;;;;;3.00;2.13;;;1.00;99.90;;;;;;5037146;28;20190;-83
2023/12/04 12:35:23;;;;;;;2.60;2.10;;;1.00;99.90;;;;;;5054638;28;20642;-80
2023/12/04 12:37:48;;;;;;;3.17;2.47;;;1.10;1.00;;;;;;5054602;28;20186;-80
2023/12/04 12:40:14;;;;;;;3.33;2.50;;;1.10;1.00;;;;;;5042045;28;20207;-80
2023/12/04 12:42:43;;;;;;;3.17;2.50;;;1.20;1.00;;;;;;5051126;28;20264;-82